Boston, Massachusetts
Traffic Map
Current Weather Conditions
Boston, Massachusetts
Overcast Light Snow
Overcast

Feels Like: -4°
Wind Chill: -4° Ceiling: 4500
Heat Index: Visibility: 7mi
Dew Point: Wind: 13mph
Humidity: 92% Direction: 320° (NW)
Pressure: 29.78in Gusts: 0mph
Raw Report DataKBOS 270854Z 32011KT 7SM -SNRA FEW011 SCT024 OVC045 01/00 A2978 RMK AO2 RAB38 SLP082 P0001 60002 T00110000 53024 $
Traffic Incident Summary
Active as of:
Severity:
Category:
InformationThere was an issue retrieving the traffic information for this location. Please try a different location or try again shortly.
Advertisements
Track Severe Weather on mobile